Mount Holly, NC (28120)

09:44 AM EDT del 24 Agosto 2016 (GMT -0400)
Springwood | | Change Station

Alt. 768 ft 35.28 °N, 81.06 °W | Updated 16 seconds ago

Mostly Cloudy
Molto nuvoloso
78.3 °F
Sembra 80 °F
N
0.0
Vento Variabile Vento da SE
Gusts 0.0 mph

Oggi
Massima -- | Minima -- °F
--% Possibilità di precip.
Ieri
Massima -- | Minima -- °F
Precip. -- in
Pressione 30.30 in
Visibilità 10.0 miglia
Nuvole Nubi sparse 3600 ft
Molto nuvoloso 6000 ft
Molto nuvoloso 25000 ft
Indice di calore 80 °F
Punto di rugiada 65 °F
Umidità 63%
Piovosità 0.00 in
Spessore del manto nevoso Non disponibile.
6:50 AM 8:01 PM
Gobba a levante, 57% visible
METAR KCLT 241252Z 14007KT 10SM SCT036 BKN060 BKN250 24/18 A3033 RMK AO2 SLP260 T02390183
Pressione 30.30 in
Visibilità 10.0 miglia
Nuvole Nubi sparse 3600 ft
Molto nuvoloso 6000 ft
Molto nuvoloso 25000 ft
Indice di calore 80 °F
Punto di rugiada 65 °F
Umidità 63%
Piovosità 0.00 in
Spessore del manto nevoso Non disponibile.
6:50 AM 8:01 PM
Gobba a levante, 57% visible
METAR KCLT 241252Z 14007KT 10SM SCT036 BKN060 BKN250 24/18 A3033 RMK AO2 SLP260 T02390183

10-Day Weather Forecast

Almanac

Astronomia

Aug. 24, 2016 Alba Tramonto
Ora attuale
Crepuscolo civile
Crepuscolo nautico
Crepuscolo astronomico
Luna
Estensione della luce visibile
Lunghezza del giorno
Tomorrow will be .
, % of the Moon is Illuminated

Gli estremi di oggi

State Highs State Lows

Community

WunderPhotos

Upload Photos

1,934,598 foto caricate!

WunderBlog® & News

Nearby

Qualità dell'aria

  Qualità dell'aria Indice AQ Inquinante
Not available.

Profondità neve

Stazione Profondità Altitudine

Attività sismica

Città  Distanza Mag. Data & Ora
Minimo Magnitudo Mostrato è 2.5.

Temperature delle acque costiere

Località Temperatura

Stations

Stazioni meteo nelle vicinanze

Ubicazione della stazione Temp. Raffreddamento del vento Punto di rugiada Umidità Vento Precip. Alt. Aggiornato Tipo
                   

Watches & Warnings

There are currently no watches in effect.